This is the latest recevied weather packets stored in our database for station/object K7LDN-13. If no packets are shown the sender has not sent any weather packets the latest 1 day(s).
| Time | Temp. | Humidity | Pressure | Rain* | Wind** | Luminosity | Snow |
|---|---|---|---|---|---|---|---|
| 1778077998 | 10° C | 45% | 1020.3 hPa | 0 mm | - | 322 W/m² | - |
| 1778077696 | 10° C | 45% | 1020.3 hPa | 0 mm | - | 322 W/m² | - |
| 1778077092 | 10° C | 47% | 1020.4 hPa | 0 mm | - | 292 W/m² | - |
| 1778076790 | 10° C | 47% | 1020.3 hPa | 0 mm | - | 276 W/m² | - |
| 1778074061 | 8.89° C | 54% | 1019.6 hPa | 0 mm | - | 101 W/m² | - |
| 1778073152 | 7.78° C | 58% | 1019.3 hPa | 0 mm | - | 76 W/m² | - |
| 1778072849 | 7.78° C | 58% | 1019.3 hPa | 0 mm | - | 71 W/m² | - |
| 1778072546 | 7.78° C | 57% | 1019.3 hPa | 0 mm | - | 59 W/m² | - |
| 1778072244 | 7.78° C | 56% | 1019.1 hPa | 0 mm | - | 48 W/m² | - |
| 1778070127 | 7.22° C | 64% | 1018.7 hPa | 0 mm | - | 4 W/m² | - |
| 1778069521 | 6.67° C | 65% | 1018.7 hPa | 0 mm | - | 1 W/m² | - |
| 1778069219 | 6.67° C | 66% | 1018.6 hPa | 0 mm | - | 0 W/m² | - |
| 1778068312 | 7.22° C | 67% | 1018.5 hPa | 0 mm | - | 0 W/m² | - |
| 1778068009 | 7.22° C | 67% | 1018.3 hPa | 0 mm | - | 0 W/m² | - |
| 1778067707 | 7.22° C | 67% | 1018.5 hPa | 0 mm | - | 0 W/m² | - |
| 1778067102 | 6.67° C | 65% | 1018.5 hPa | 0 mm | - | 0 W/m² | - |
| 1778066798 | 6.67° C | 66% | 1018.6 hPa | 0 mm | - | 0 W/m² | - |
| 1778066496 | 6.67° C | 67% | 1018.5 hPa | 0 mm | - | 0 W/m² | - |
| 1778065891 | 6.67° C | 69% | 1018.6 hPa | 0 mm | - | 0 W/m² | - |
| 1778064982 | 6.67° C | 69% | 1018.2 hPa | 0 mm | - | 0 W/m² | - |
| 1778064679 | 6.67° C | 69% | 1018.1 hPa | 0 mm | - | 0 W/m² | - |
| 1778064377 | 6.67° C | 71% | 1018.1 hPa | 0 mm | - | 0 W/m² | - |
| 1778062864 | 6.11° C | 79% | 1017.8 hPa | 0 mm | - | 0 W/m² | - |
| 1778061653 | 6.11° C | 86% | 1017.2 hPa | 0 mm | - | 0 W/m² | - |
| 1778061048 | 6.11° C | 89% | 1017 hPa | 0.51 mm | - | 0 W/m² | - |
* Rain latest hour (hover to see other rain measurements)
** Current wind speed in m/s (hover to see current wind gust speed)